Time;durP1;ratioP1;P1;durP2;ratioP2;P2;SDS_P1;SDS_P2;PMS_P1;PMS_P2;Temp;Humidity;BMP_temperature;BMP_pressure;BME280_temperature;BME280_humidity;BME280_pressure;Samples;Min_cycle;Max_cycle;Signal;HPM_P1;HPM_P2
2021/12/01 00:00:18;;;;;;;12.25;3.35;;;;;;;14.81;66.39;100048.97;4899407;29;20061;-65
2021/12/01 00:02:44;;;;;;;10.77;2.47;;;;;;;14.46;67.75;100044.84;4899571;29;20029;-65
2021/12/01 00:05:10;;;;;;;13.45;2.67;;;;;;;14.63;66.85;100041.00;4883573;29;20048;-65
2021/12/01 00:07:37;;;;;;;8.23;2.67;;;;;;;15.03;65.19;100036.56;4899386;29;20115;-66
2021/12/01 00:10:08;;;;;;;10.67;2.23;;;;;;;14.94;65.58;100022.94;4921806;29;20056;-62
2021/12/01 00:12:33;;;;;;;6.65;1.92;;;;;;;14.73;65.44;100014.88;4935039;29;20087;-63
2021/12/01 00:14:59;;;;;;;5.65;1.80;;;;;;;14.66;64.92;100007.19;4918343;29;20055;-63
2021/12/01 00:17:25;;;;;;;8.77;1.70;;;;;;;15.35;63.26;99996.03;4902184;29;20036;-64
2021/12/01 00:19:51;;;;;;;12.00;1.80;;;;;;;14.94;64.38;99992.59;4918204;29;20433;-65
2021/12/01 00:22:16;;;;;;;11.15;2.00;;;;;;;15.42;63.44;99987.09;4917709;29;20023;-64
2021/12/01 00:24:42;;;;;;;10.02;1.75;;;;;;;15.17;63.71;99972.66;4901639;29;20028;-64
2021/12/01 00:27:07;;;;;;;7.28;2.05;;;;;;;14.36;66.47;99957.06;4901896;29;20036;-64
2021/12/01 00:29:32;;;;;;;7.93;1.85;;;;;;;14.76;64.39;99955.44;4934740;29;20035;-65
2021/12/01 00:31:58;;;;;;;10.50;2.05;;;;;;;16.26;60.41;99949.16;4934718;29;20031;-62
2021/12/01 00:34:23;;;;;;;7.47;2.15;;;;;;;15.60;62.31;99940.56;4901985;29;20036;-65
2021/12/01 00:36:49;;;;;;;5.95;2.20;;;;;;;15.48;62.56;99943.44;4917832;29;20095;-61
2021/12/01 00:39:14;;;;;;;8.82;2.90;;;;;;;15.45;62.59;99942.19;4917301;29;20177;-62
2021/12/01 00:41:39;;;;;;;7.78;3.70;;;;;;;15.00;64.18;99935.16;4934559;29;20040;-65
2021/12/01 00:44:07;;;;;;;7.97;3.20;;;;;;;15.33;63.67;99925.72;4918016;29;20051;-66
2021/12/01 00:46:41;;;;;;;8.93;3.50;;;;;;;15.20;63.95;99927.78;4934132;29;20040;-63
2021/12/01 00:49:07;;;;;;;9.18;2.67;;;;;;;14.95;64.36;99930.69;4919225;29;20040;-64
2021/12/01 00:51:33;;;;;;;6.93;2.80;;;;;;;15.53;63.29;99916.34;4934110;29;20032;-65
2021/12/01 00:53:59;;;;;;;3.45;1.95;;;;;;;14.94;64.92;99914.53;4934476;29;20035;-65
2021/12/01 00:56:24;;;;;;;6.95;2.70;;;;;;;15.07;65.27;99906.97;4934192;29;20036;-63
2021/12/01 00:58:51;;;;;;;6.05;2.80;;;;;;;14.42;67.03;99894.22;4902120;29;20032;-64
2021/12/01 01:01:16;;;;;;;5.63;3.08;;;;;;;14.79;65.01;99875.50;4934032;29;20040;-64
2021/12/01 01:03:42;;;;;;;7.82;3.95;;;;;;;14.49;66.71;99905.41;4934414;29;20111;-62
2021/12/01 01:06:08;;;;;;;6.03;4.20;;;;;;;14.98;65.08;99904.38;4917754;29;20051;-64
2021/12/01 01:08:34;;;;;;;7.80;4.35;;;;;;;15.23;63.98;99897.50;4917447;29;20035;-63
2021/12/01 01:16:25;;;;;;;7.45;2.60;;;;;;;14.87;64.17;99860.75;4934424;29;20115;-63
2021/12/01 01:19:01;;;;;;;6.78;2.78;;;;;;;15.04;63.53;99859.56;4933294;29;20035;-64
2021/12/01 01:21:31;;;;;;;8.15;2.05;;;;;;;15.14;63.39;99857.44;4933824;29;20043;-64
2021/12/01 01:23:56;;;;;;;11.48;2.15;;;;;;;14.77;63.92;99849.44;4934371;29;20039;-63
2021/12/01 01:26:23;;;;;;;6.97;1.65;;;;;;;14.57;64.01;99832.78;4917207;29;20032;-63
2021/12/01 01:28:49;;;;;;;13.07;2.08;;;;;;;15.04;63.28;99845.78;4917759;29;20051;-63
2021/12/01 01:31:15;;;;;;;9.15;1.95;;;;;;;15.55;61.59;99825.63;4917469;29;20380;-65
2021/12/01 01:33:41;;;;;;;8.73;1.70;;;;;;;15.30;62.44;99811.25;4917555;29;20512;-64
2021/12/01 01:36:07;;;;;;;7.40;1.42;;;;;;;14.97;62.67;99812.50;4935488;29;20028;-64
2021/12/01 01:38:33;;;;;;;10.88;2.20;;;;;;;14.74;63.06;99826.13;4920641;29;20545;-65
2021/12/01 01:41:04;;;;;;;9.82;1.65;;;;;;;14.56;64.29;99795.31;4937704;29;20032;-65
2021/12/01 01:43:29;;;;;;;4.75;1.42;;;;;;;14.48;63.76;99807.31;4937289;29;20024;-64
2021/12/01 01:45:56;;;;;;;5.88;1.55;;;;;;;14.87;63.19;99793.72;4936644;29;20038;-63
2021/12/01 01:48:30;;;;;;;6.35;1.48;;;;;;;15.44;61.49;99783.16;4936917;29;20075;-62
2021/12/01 01:50:57;;;;;;;7.28;1.58;;;;;;;14.46;64.08;99784.78;4891545;29;20508;-66
2021/12/01 01:53:24;;;;;;;5.25;1.42;;;;;;;15.10;62.35;99773.75;4937173;29;20059;-63
2021/12/01 01:55:51;;;;;;;;;;;;;;;14.91;62.66;99750.47;4921399;29;20032;-65
2021/12/01 01:58:17;;;;;;;7.80;1.50;;;;;;;15.53;60.86;99752.59;4937372;29;19919;-63
2021/12/01 02:00:53;;;;;;;8.88;1.30;;;;;;;14.64;63.55;99747.47;4936938;29;20032;-63
2021/12/01 02:03:21;;;;;;;5.07;1.10;;;;;;;14.53;63.51;99749.13;4920573;29;20067;-63
2021/12/01 02:05:47;;;;;;;5.13;1.23;;;;;;;14.86;62.88;99731.44;4937266;29;20097;-65
2021/12/01 02:08:31;;;;;;;6.38;1.50;;;;;;;15.09;62.49;99722.47;4920486;29;20077;-63
2021/12/01 02:11:00;;;;;;;4.95;1.25;;;;;;;14.89;62.87;99725.19;4934134;29;20120;-65
2021/12/01 02:13:26;;;;;;;5.05;1.73;;;;;;;14.88;63.12;99701.50;4919942;29;20036;-65
2021/12/01 02:15:53;;;;;;;5.00;1.87;;;;;;;14.64;63.54;99700.56;4936236;29;20063;-63
2021/12/01 02:18:19;;;;;;;3.60;2.20;;;;;;;14.90;63.33;99703.91;4937101;29;20039;-64
2021/12/01 02:21:05;;;;;;;5.30;2.03;;;;;;;15.06;62.39;99690.84;4919915;29;20036;-64
2021/12/01 02:23:33;;;;;;;4.30;2.42;;;;;;;14.46;63.85;99678.06;4919675;29;20038;-64
2021/12/01 02:25:59;;;;;;;7.55;2.63;;;;;;;14.43;64.04;99665.00;4936943;29;20048;-65
2021/12/01 02:28:24;;;;;;;5.72;2.45;;;;;;;14.18;65.02;99663.59;4936518;29;20032;-65
2021/12/01 02:30:50;;;;;;;4.88;2.22;;;;;;;14.34;64.66;99656.91;4920293;29;20031;-63
2021/12/01 02:33:15;;;;;;;5.05;2.50;;;;;;;14.30;65.34;99657.97;4920062;29;20068;-61
2021/12/01 02:35:41;;;;;;;7.03;2.58;;;;;;;14.44;64.29;99649.25;4919492;29;20036;-64
2021/12/01 02:38:06;;;;;;;5.80;2.53;;;;;;;13.81;66.35;99650.06;4919899;29;20043;-64
2021/12/01 02:40:33;;;;;;;4.97;2.58;;;;;;;14.37;64.65;99632.53;4919564;29;20039;-63
2021/12/01 02:42:58;;;;;;;6.03;2.88;;;;;;;14.62;63.87;99628.44;4919988;29;20028;-63
2021/12/01 02:45:23;;;;;;;3.78;2.33;;;;;;;14.02;65.03;99614.00;4936552;29;20133;-62
2021/12/01 02:47:49;;;;;;;4.68;2.90;;;;;;;14.31;64.66;99619.00;4935497;29;20067;-62
2021/12/01 02:50:15;;;;;;;5.07;3.17;;;;;;;14.29;64.79;99621.34;4919750;29;20215;-66
2021/12/01 02:52:41;;;;;;;5.53;3.17;;;;;;;14.34;64.97;99612.78;4919392;29;20091;-63
2021/12/01 02:55:09;;;;;;;4.10;2.90;;;;;;;13.82;66.87;99618.59;4904045;29;20032;-63
2021/12/01 02:57:52;;;;;;;4.40;2.17;;;;;;;14.21;65.71;99589.25;4936039;29;20438;-63
2021/12/01 03:00:20;;;;;;;3.33;2.35;;;;;;;14.29;65.12;99588.25;4936311;29;20091;-64
2021/12/01 03:02:47;;;;;;;4.43;2.38;;;;;;;14.41;65.04;99578.28;4935808;29;21160;-64
2021/12/01 03:05:15;;;;;;;2.55;1.70;;;;;;;13.75;66.98;99570.44;4919455;29;20028;-62
2021/12/01 03:07:41;;;;;;;3.78;2.17;;;;;;;13.16;68.79;99574.00;4935662;29;20039;-63
2021/12/01 03:10:07;;;;;;;4.10;2.25;;;;;;;13.42;67.73;99555.06;4935754;29;20615;-62
2021/12/01 03:12:35;;;;;;;3.40;2.40;;;;;;;13.52;67.85;99534.47;4935691;29;20061;-64
2021/12/01 03:15:00;;;;;;;5.45;2.50;;;;;;;14.37;64.57;99531.34;4935987;29;20038;-67
2021/12/01 03:17:27;;;;;;;5.50;2.25;;;;;;;13.67;66.82;99512.81;4919325;29;20056;-64
2021/12/01 03:19:53;;;;;;;5.53;2.50;;;;;;;13.43;66.58;99498.84;4918820;29;20032;-65
2021/12/01 03:22:18;;;;;;;3.67;2.20;;;;;;;13.61;67.09;99496.53;4919200;29;20042;-62
2021/12/01 03:24:44;;;;;;;4.15;2.60;;;;;;;13.88;66.24;99496.78;4918889;29;20028;-63
2021/12/01 03:27:09;;;;;;;3.70;2.20;;;;;;;13.38;67.48;99487.31;4903304;29;20040;-64
2021/12/01 03:29:34;;;;;;;4.35;2.50;;;;;;;13.44;67.44;99480.38;4918518;29;20031;-63
2021/12/01 03:32:00;;;;;;;6.97;2.88;;;;;;;13.54;66.22;99470.81;4935688;29;20092;-64
2021/12/01 03:34:25;;;;;;;4.05;2.38;;;;;;;14.10;64.59;99469.72;4918953;29;20044;-62
2021/12/01 03:36:51;;;;;;;6.40;2.38;;;;;;;13.35;67.17;99452.25;4935138;29;20087;-64
2021/12/01 03:39:16;;;;;;;5.03;2.55;;;;;;;13.36;67.16;99448.31;4918751;29;20099;-64
2021/12/01 03:41:41;;;;;;;4.43;2.97;;;;;;;13.48;66.63;99453.75;4935094;29;20063;-62
2021/12/01 03:44:07;;;;;;;6.03;3.30;;;;;;;13.12;67.68;99435.53;4935562;29;20043;-65
2021/12/01 03:46:33;;;;;;;4.53;3.25;;;;;;;13.41;66.59;99423.31;4935064;29;20032;-66
2021/12/01 03:48:58;;;;;;;5.88;3.65;;;;;;;13.37;67.22;99436.97;4918824;29;20032;-63
2021/12/01 03:51:24;;;;;;;6.00;3.70;;;;;;;13.59;65.66;99423.72;4918544;29;20028;-64
2021/12/01 03:53:50;;;;;;;7.47;3.83;;;;;;;13.39;67.13;99415.41;4918083;29;20474;-64
2021/12/01 03:56:18;;;;;;;8.23;4.30;;;;;;;13.46;66.70;99394.69;4918788;29;20051;-65
2021/12/01 03:58:44;;;;;;;6.38;3.45;;;;;;;13.13;67.30;99407.66;4917662;29;20036;-67
2021/12/01 04:01:12;;;;;;;5.80;3.65;;;;;;;12.70;69.18;99398.31;4918457;29;20047;-63
2021/12/01 04:03:38;;;;;;;6.05;3.85;;;;;;;12.62;69.31;99396.53;4934694;29;20052;-62
2021/12/01 04:06:04;;;;;;;6.30;3.90;;;;;;;12.88;67.80;99391.34;4918371;29;20056;-65
2021/12/01 04:08:30;;;;;;;6.13;4.28;;;;;;;12.84;68.62;99379.44;4934896;29;20053;-63
2021/12/01 04:10:56;;;;;;;6.88;3.80;;;;;;;12.77;68.59;99365.47;4934539;29;20060;-64
2021/12/01 04:13:21;;;;;;;6.57;4.63;;;;;;;12.82;68.44;99359.75;4918347;29;20032;-64
2021/12/01 04:15:47;;;;;;;5.88;3.92;;;;;;;13.16;66.80;99357.41;4934734;29;20031;-64
2021/12/01 04:18:12;;;;;;;6.35;4.25;;;;;;;13.42;66.59;99354.09;4918135;29;20032;-63
2021/12/01 04:20:38;;;;;;;5.72;4.05;;;;;;;12.76;68.43;99344.66;4917801;29;20028;-62
2021/12/01 04:23:03;;;;;;;6.97;4.45;;;;;;;13.27;66.81;99346.66;4935053;29;20068;-63
2021/12/01 04:25:29;;;;;;;6.65;4.53;;;;;;;12.98;68.16;99340.50;4934789;29;20040;-63
2021/12/01 04:27:54;;;;;;;6.93;4.68;;;;;;;12.93;67.50;99329.72;4933596;29;20047;-64
2021/12/01 04:30:22;;;;;;;8.60;4.57;;;;;;;12.74;69.06;99326.91;4934755;29;20032;-63
2021/12/01 04:32:49;;;;;;;6.80;4.05;;;;;;;13.09;66.93;99317.91;4934420;29;20028;-62
2021/12/01 04:35:19;;;;;;;9.20;4.32;;;;;;;12.93;67.97;99321.47;4933759;29;20040;-65
2021/12/01 04:37:46;;;;;;;6.68;4.22;;;;;;;12.39;69.48;99298.16;4934263;29;20024;-65
2021/12/01 04:40:14;;;;;;;6.68;4.72;;;;;;;12.89;67.73;99301.34;4934691;29;20087;-64
2021/12/01 04:42:40;;;;;;;7.03;4.55;;;;;;;12.67;68.95;99292.56;4934303;29;20072;-63
2021/12/01 04:45:14;;;;;;;8.48;5.00;;;;;;;12.56;69.30;99296.22;4917996;29;20036;-64
2021/12/01 04:47:42;;;;;;;7.75;4.93;;;;;;;12.49;69.41;99286.63;4918843;29;20063;-65
2021/12/01 04:50:08;;;;;;;7.57;5.35;;;;;;;12.95;67.90;99288.13;4934515;29;20026;-63
2021/12/01 04:52:34;;;;;;;7.80;4.22;;;;;;;12.72;69.00;99274.22;4917961;29;20040;-62
2021/12/01 04:54:59;;;;;;;9.70;5.50;;;;;;;13.27;67.09;99282.56;4934234;29;20036;-65
2021/12/01 04:57:25;;;;;;;9.02;4.70;;;;;;;13.11;67.05;99277.09;4934392;29;20100;-64
2021/12/01 04:59:50;;;;;;;8.10;5.10;;;;;;;12.87;68.21;99274.22;4901842;29;20040;-64
2021/12/01 05:02:16;;;;;;;7.00;5.22;;;;;;;12.90;67.90;99269.97;4934260;29;20068;-65
2021/12/01 05:04:41;;;;;;;9.65;5.15;;;;;;;13.25;67.04;99277.41;4901701;29;20060;-64
2021/12/01 05:07:10;;;;;;;8.95;5.43;;;;;;;12.94;67.40;99268.06;4934383;29;20087;-63
2021/12/01 05:09:35;;;;;;;9.10;5.18;;;;;;;13.27;66.36;99261.34;4918113;29;20048;-65
2021/12/01 05:12:01;;;;;;;7.82;4.88;;;;;;;13.46;66.31;99238.59;4936750;29;20099;-63
2021/12/01 05:14:27;;;;;;;8.27;5.60;;;;;;;12.55;68.68;99234.97;4921651;29;20088;-64
2021/12/01 05:16:53;;;;;;;8.27;5.55;;;;;;;12.88;67.92;99225.50;4920932;29;20095;-65
2021/12/01 05:19:18;;;;;;;7.68;5.20;;;;;;;12.70;68.37;99239.63;4921564;29;20042;-64
2021/12/01 05:21:44;;;;;;;8.52;5.13;;;;;;;12.89;68.37;99235.34;4937735;29;20032;-64
2021/12/01 05:24:09;;;;;;;10.82;5.28;;;;;;;13.14;67.97;99233.16;4905711;29;20040;-64
2021/12/01 05:26:36;;;;;;;7.28;5.00;;;;;;;12.89;68.26;99232.59;4938101;29;20032;-64
2021/12/01 05:29:01;;;;;;;11.07;5.40;;;;;;;13.14;66.92;99227.66;4921001;29;20028;-62
2021/12/01 05:31:27;;;;;;;7.07;4.80;;;;;;;13.36;66.61;99228.94;4921198;29;20039;-63
2021/12/01 05:33:52;;;;;;;6.75;4.65;;;;;;;13.64;65.29;99232.66;4920642;29;20032;-61
2021/12/01 05:36:18;;;;;;;7.95;5.10;;;;;;;12.84;67.72;99225.41;4905632;29;20036;-62
2021/12/01 05:38:43;;;;;;;7.72;4.63;;;;;;;13.07;67.20;99228.31;4920955;29;20032;-63
2021/12/01 05:41:08;;;;;;;6.32;4.50;;;;;;;13.07;67.11;99225.56;4920679;29;20043;-63
2021/12/01 05:43:34;;;;;;;6.65;5.05;;;;;;;13.33;67.24;99228.84;4936738;29;20114;-64
2021/12/01 05:45:59;;;;;;;9.13;5.57;;;;;;;13.28;66.65;99223.59;4936213;29;20028;-62
2021/12/01 05:48:24;;;;;;;7.93;5.20;;;;;;;13.32;66.75;99214.28;4921090;29;20103;-63
2021/12/01 05:50:50;;;;;;;10.65;6.55;;;;;;;13.38;66.76;99217.56;4936851;29;20625;-62
2021/12/01 05:53:15;;;;;;;7.95;5.47;;;;;;;12.70;68.79;99200.34;4937557;29;20036;-64
2021/12/01 05:55:41;;;;;;;12.32;6.10;;;;;;;13.54;66.03;99212.00;4920825;29;20038;-64
2021/12/01 05:58:07;;;;;;;8.88;6.03;;;;;;;13.47;66.10;99209.88;4920187;29;20039;-63
2021/12/01 06:00:32;;;;;;;8.20;6.45;;;;;;;13.16;66.97;99208.81;4920408;29;20064;-62
2021/12/01 06:02:57;;;;;;;7.47;6.40;;;;;;;12.91;68.13;99197.28;4904766;29;20500;-64
2021/12/01 06:05:23;;;;;;;8.38;6.45;;;;;;;13.25;67.43;99195.66;4937132;29;20030;-64
2021/12/01 06:07:49;;;;;;;9.20;6.70;;;;;;;13.95;64.83;99193.91;4920534;29;20043;-65
2021/12/01 06:10:15;;;;;;;8.80;6.72;;;;;;;13.47;66.45;99174.09;4904910;29;20064;-62
2021/12/01 06:12:42;;;;;;;7.60;6.32;;;;;;;12.94;67.92;99166.31;4920461;29;20036;-64
2021/12/01 06:15:10;;;;;;;8.85;7.75;;;;;;;13.45;66.45;99168.16;4920337;29;20035;-65
2021/12/01 06:17:36;;;;;;;9.52;6.68;;;;;;;13.36;66.13;99173.09;4937166;29;20081;-63
2021/12/01 06:20:03;;;;;;;6.68;4.85;;;;;;;13.56;65.63;99173.88;4920012;29;20048;-62
2021/12/01 06:22:29;;;;;;;9.93;6.07;;;;;;;13.41;66.07;99186.56;4936824;29;20062;-65
2021/12/01 06:24:54;;;;;;;9.43;5.30;;;;;;;13.80;65.79;99147.97;4919900;29;20040;-63
2021/12/01 06:27:19;;;;;;;5.28;4.00;;;;;;;13.62;66.07;99150.41;4919979;29;20042;-63
2021/12/01 06:29:45;;;;;;;5.38;3.60;;;;;;;13.52;66.46;99150.97;4935946;29;20064;-63
2021/12/01 06:32:10;;;;;;;7.97;3.70;;;;;;;13.78;65.57;99148.31;4936384;29;20043;-65
2021/12/01 06:34:36;;;;;;;5.15;3.60;;;;;;;14.12;64.20;99156.78;4920043;29;20040;-63
2021/12/01 06:37:01;;;;;;;5.50;3.17;;;;;;;13.52;65.98;99143.53;4919613;29;20056;-65
2021/12/01 06:39:26;;;;;;;4.88;3.00;;;;;;;13.33;67.19;99143.53;4935569;29;20028;-62
2021/12/01 06:41:54;;;;;;;4.53;2.63;;;;;;;12.78;68.99;99119.59;4936725;29;20043;-64
2021/12/01 06:44:20;;;;;;;4.22;2.50;;;;;;;13.33;66.80;99138.03;4920051;29;20033;-62
2021/12/01 06:46:45;;;;;;;6.22;2.30;;;;;;;13.72;65.67;99125.00;4936733;29;20044;-63
2021/12/01 06:49:11;;;;;;;5.90;2.60;;;;;;;14.10;64.70;99123.28;4919340;29;20087;-63
2021/12/01 06:51:36;;;;;;;3.85;2.10;;;;;;;13.92;64.44;99117.50;4903956;29;20044;-62
2021/12/01 06:54:01;;;;;;;6.88;2.38;;;;;;;14.31;63.33;99122.81;4935922;29;20055;-62
2021/12/01 06:56:27;;;;;;;6.40;2.50;;;;;;;14.08;63.03;99109.09;4936438;29;20036;-65
2021/12/01 06:58:52;;;;;;;6.75;2.50;;;;;;;14.14;64.22;99104.03;4903581;29;20068;-65
2021/12/01 07:01:17;;;;;;;6.80;2.22;;;;;;;14.25;63.65;99112.50;4935789;29;20131;-64
2021/12/01 07:03:43;;;;;;;5.78;2.22;;;;;;;13.46;66.08;99100.94;4919628;29;20040;-63
2021/12/01 07:06:09;;;;;;;3.05;1.88;;;;;;;14.20;64.05;99105.34;4935751;29;20806;-64
2021/12/01 07:08:35;;;;;;;6.20;2.35;;;;;;;14.50;62.93;99107.34;4919272;29;20099;-64
2021/12/01 07:11:01;;;;;;;8.75;2.50;;;;;;;14.37;63.42;99098.50;4918668;29;20063;-65
2021/12/01 07:13:31;;;;;;;9.52;2.90;;;;;;;14.26;63.69;99098.34;4903749;29;20032;-62
2021/12/01 07:15:57;;;;;;;9.55;2.65;;;;;;;14.29;63.41;99094.84;4919807;29;20077;-62
2021/12/01 07:18:22;;;;;;;9.32;2.45;;;;;;;14.12;63.97;99084.34;4935592;29;20120;-65
2021/12/01 07:20:47;;;;;;;6.03;2.88;;;;;;;14.64;62.29;99087.50;4919107;29;20116;-64
2021/12/01 07:23:13;;;;;;;8.70;2.95;;;;;;;14.21;63.61;99073.06;4918391;29;20039;-65
2021/12/01 07:25:38;;;;;;;12.93;2.67;;;;;;;13.79;65.74;99072.00;4918982;29;20769;-65
2021/12/01 07:28:04;;;;;;;7.10;3.00;;;;;;;14.66;62.31;99077.66;4935404;29;20043;-66
2021/12/01 07:30:32;;;;;;;11.43;2.60;;;;;;;13.49;66.46;99072.69;4919012;29;20039;-65
2021/12/01 07:32:57;;;;;;;9.25;3.05;;;;;;;13.92;65.67;99084.44;4918974;29;20039;-62
2021/12/01 07:35:23;;;;;;;9.63;2.78;;;;;;;14.08;65.08;99076.03;4917859;29;20103;-63
2021/12/01 07:37:49;;;;;;;12.35;2.90;;;;;;;13.66;66.28;99071.38;4935157;29;20060;-64
2021/12/01 07:40:15;;;;;;;10.43;2.58;;;;;;;14.06;66.03;99072.03;4934983;29;20031;-64
2021/12/01 07:42:41;;;;;;;12.60;3.05;;;;;;;14.48;64.56;99079.38;4918891;29;20039;-63
2021/12/01 07:45:07;;;;;;;12.70;3.25;;;;;;;14.33;64.41;99109.50;4918338;29;20031;-65
2021/12/01 07:47:33;;;;;;;11.00;2.97;;;;;;;14.68;63.23;99086.38;4918800;29;20028;-65
2021/12/01 07:49:58;;;;;;;10.45;2.85;;;;;;;13.98;65.38;99104.19;4935634;29;20051;-63
2021/12/01 07:52:24;;;;;;;12.82;2.72;;;;;;;13.85;64.81;99094.53;4935200;29;20035;-65
2021/12/01 07:54:49;;;;;;;10.23;2.88;;;;;;;14.55;63.53;99104.28;4918624;29;20136;-64
2021/12/01 07:57:15;;;;;;;12.50;2.38;;;;;;;13.91;63.94;99085.59;4934831;29;20032;-63
2021/12/01 07:59:40;;;;;;;9.45;2.40;;;;;;;14.21;62.24;99106.94;4918785;29;20036;-68
2021/12/01 08:02:06;;;;;;;11.70;2.08;;;;;;;13.90;62.21;99095.03;4918085;29;20052;-65
2021/12/01 08:04:31;;;;;;;7.47;1.60;;;;;;;13.92;59.78;99111.19;4902581;29;20059;-63
2021/12/01 08:06:57;;;;;;;10.77;1.60;;;;;;;14.14;58.88;99101.28;4918270;29;20035;-64
2021/12/01 08:09:24;;;;;;;9.27;1.70;;;;;;;14.32;57.96;99105.13;4917650;29;20021;-68
2021/12/01 08:11:50;;;;;;;16.02;2.00;;;;;;;14.41;57.08;99117.84;4920666;29;20052;-63
2021/12/01 08:14:16;;;;;;;12.30;1.58;;;;;;;13.81;58.65;99116.50;4953857;29;20051;-63
2021/12/01 08:16:41;;;;;;;6.90;1.40;;;;;;;14.23;57.62;99110.09;4937328;29;20055;-64
2021/12/01 08:19:07;;;;;;;9.70;1.55;;;;;;;13.73;58.09;99117.56;4936762;29;20063;-65
2021/12/01 08:21:33;;;;;;;11.50;1.77;;;;;;;13.78;58.27;99111.75;4937178;29;20040;-64
2021/12/01 08:23:59;;;;;;;9.30;1.50;;;;;;;14.25;57.35;99110.56;4953919;29;20027;-63
2021/12/01 08:26:27;;;;;;;10.05;1.48;;;;;;;14.45;57.70;99102.16;4936766;29;20091;-62
2021/12/01 08:28:52;;;;;;;13.57;1.80;;;;;;;13.79;58.81;99102.28;4936982;29;20027;-63
2021/12/01 08:31:19;;;;;;;10.30;1.60;;;;;;;14.25;57.54;99107.78;4952499;29;20042;-66
2021/12/01 08:33:46;;;;;;;9.07;1.63;;;;;;;14.36;57.45;99112.66;4954035;29;20055;-65
2021/12/01 08:36:12;;;;;;;14.60;1.60;;;;;;;14.37;57.77;99115.03;4953384;29;20062;-63
2021/12/01 08:38:39;;;;;;;10.57;1.80;;;;;;;14.08;58.17;99120.13;4947331;29;20016;-66
2021/12/01 08:41:06;;;;;;;11.15;1.98;;;;;;;14.15;58.34;99125.72;4952669;29;20023;-64
2021/12/01 08:43:31;;;;;;;10.63;1.60;;;;;;;14.27;57.80;99126.69;4952813;29;20031;-64
2021/12/01 08:45:57;;;;;;;7.53;1.20;;;;;;;14.37;56.93;99141.81;4919989;29;20038;-64
2021/12/01 08:48:23;;;;;;;11.15;1.35;;;;;;;14.62;55.74;99148.53;4920330;29;20075;-65
2021/12/01 08:50:49;;;;;;;9.95;1.52;;;;;;;13.74;57.87;99149.41;4953049;29;20032;-63
2021/12/01 08:53:14;;;;;;;10.77;1.33;;;;;;;13.74;57.58;99153.00;4936006;29;20043;-64
2021/12/01 08:55:41;;;;;;;9.00;1.42;;;;;;;14.22;56.65;99168.34;4936536;29;20056;-64
2021/12/01 08:58:09;;;;;;;6.82;1.00;;;;;;;14.11;57.54;99162.66;4920913;29;20067;-63
2021/12/01 09:00:37;;;;;;;13.27;1.40;;;;;;;14.49;56.38;99169.16;4952119;29;20035;-63
2021/12/01 09:05:47;;;;;;;4.88;0.93;;;;;;;13.83;58.44;99174.00;4952661;29;20059;-64
2021/12/01 09:08:15;;;;;;;7.32;0.93;;;;;;;13.69;58.82;99191.03;4936178;29;20087;-65
2021/12/01 09:10:41;;;;;;;;;;;;;;;13.92;58.33;99183.59;4921033;29;20051;-64
2021/12/01 09:13:07;;;;;;;5.20;0.82;;;;;;;14.00;58.23;99190.03;4953339;29;19923;-63
2021/12/01 09:15:33;;;;;;;8.48;1.30;;;;;;;13.65;59.11;99195.66;4936074;29;20128;-63
2021/12/01 09:17:59;;;;;;;8.00;1.48;;;;;;;14.07;57.83;99183.84;4953351;29;20048;-66
2021/12/01 09:20:25;;;;;;;10.25;1.20;;;;;;;13.46;59.65;99193.72;4936057;29;20028;-65
2021/12/01 09:22:51;;;;;;;5.88;1.13;;;;;;;13.42;60.20;99194.44;4953264;29;20036;-63
2021/12/01 09:25:17;;;;;;;5.28;1.15;;;;;;;13.64;59.76;99202.34;4952828;29;20039;-64
2021/12/01 09:27:44;;;;;;;4.78;0.93;;;;;;;13.32;61.18;99210.72;4953105;29;20032;-64
2021/12/01 09:30:11;;;;;;;5.22;1.27;;;;;;;13.20;61.46;99212.47;4920727;29;20028;-64
2021/12/01 09:32:37;;;;;;;7.18;1.38;;;;;;;13.91;59.87;99215.06;4935958;29;20036;-63
2021/12/01 09:35:04;;;;;;;6.47;1.38;;;;;;;13.61;60.46;99218.41;4953098;29;20039;-63
2021/12/01 09:37:30;;;;;;;6.78;1.30;;;;;;;13.95;59.33;99210.44;4952201;29;20071;-65
2021/12/01 09:39:55;;;;;;;8.38;1.90;;;;;;;13.58;59.98;99219.19;4936197;29;20035;-64
2021/12/01 09:42:21;;;;;;;7.40;1.52;;;;;;;13.35;60.77;99221.84;4952589;29;20039;-65
2021/12/01 09:44:47;;;;;;;9.68;1.60;;;;;;;13.74;59.56;99210.81;4936416;29;20042;-64
2021/12/01 09:47:15;;;;;;;8.45;1.67;;;;;;;13.97;59.21;99221.88;4936184;29;20036;-66
2021/12/01 09:49:41;;;;;;;;;;;;;;;13.70;59.35;99215.47;4936239;29;20028;-63
2021/12/01 09:52:08;;;;;;;7.82;1.80;;;;;;;13.72;59.53;99224.16;4953046;29;19930;-64
2021/12/01 09:54:34;;;;;;;10.68;1.75;;;;;;;13.58;58.89;99221.94;4936115;29;20059;-65
2021/12/01 09:56:59;;;;;;;9.13;1.58;;;;;;;14.05;58.26;99217.28;4953933;29;20032;-63
2021/12/01 09:59:25;;;;;;;9.63;1.60;;;;;;;13.77;58.97;99228.56;4923228;29;20039;-64
2021/12/01 10:01:51;;;;;;;10.63;1.80;;;;;;;13.99;58.44;99242.75;4955816;29;20039;-63
2021/12/01 10:04:17;;;;;;;10.02;1.42;;;;;;;13.17;60.54;99232.44;4907337;29;20099;-64
2021/12/01 10:06:42;;;;;;;9.60;1.48;;;;;;;13.69;59.29;99232.34;4955131;29;20043;-63
2021/12/01 10:09:08;;;;;;;6.43;1.50;;;;;;;13.32;60.52;99227.25;4956179;29;20024;-64
2021/12/01 10:11:39;;;;;;;6.60;1.00;;;;;;;13.43;60.34;99231.03;4907242;29;20079;-63
2021/12/01 10:14:07;;;;;;;11.95;1.95;;;;;;;13.40;60.57;99240.03;4937163;29;20032;-63
2021/12/01 10:16:36;;;;;;;8.43;1.23;;;;;;;13.00;61.16;99224.59;4936771;29;20048;-64
2021/12/01 10:19:16;;;;;;;10.13;1.60;;;;;;;13.85;59.66;99224.00;4920198;29;20025;-63
2021/12/01 10:21:46;;;;;;;11.82;1.85;;;;;;;14.13;58.66;99215.47;4934102;29;20032;-64
2021/12/01 10:24:24;;;;;;;9.65;1.50;;;;;;;14.23;58.32;99219.56;4937146;29;20105;-65
2021/12/01 10:27:02;;;;;;;7.13;1.48;;;;;;;14.37;58.02;99213.50;4918828;29;20032;-65
2021/12/01 10:29:31;;;;;;;7.57;1.58;;;;;;;14.18;58.14;99217.91;4927716;29;20027;-65
2021/12/01 10:32:00;;;;;;;11.65;1.85;;;;;;;14.23;57.85;99214.06;4916262;29;20032;-65
2021/12/01 10:34:35;;;;;;;11.73;1.70;;;;;;;14.42;57.88;99210.44;4932673;29;20032;-64
2021/12/01 10:37:23;;;;;;;6.55;1.40;;;;;;;15.05;56.46;99212.59;4929864;29;20045;-64
2021/12/01 10:46:52;;;;;;;13.30;2.25;;;;;;;14.04;58.19;99207.41;4912549;29;20053;-63
2021/12/01 10:49:32;;;;;;;12.13;1.60;;;;;;;13.93;58.06;99206.44;4893820;29;20033;-64
2021/12/01 10:51:58;;;;;;;10.07;1.65;;;;;;;13.11;59.69;99195.38;4912545;29;20044;-65
2021/12/01 10:54:23;;;;;;;13.40;1.60;;;;;;;13.89;57.46;99195.34;4920874;29;20096;-63
2021/12/01 10:57:21;;;;;;;9.57;1.40;;;;;;;14.21;56.45;99208.91;4926438;29;20028;-65
2021/12/01 10:59:48;;;;;;;9.60;1.35;;;;;;;14.33;55.91;99196.88;4928938;29;20079;-63
2021/12/01 11:02:16;;;;;;;8.80;1.67;;;;;;;13.80;57.35;99214.06;4930440;29;20065;-66
2021/12/01 11:04:45;;;;;;;8.90;1.40;;;;;;;14.05;56.15;99208.22;4916354;29;20165;-65
2021/12/01 11:07:31;;;;;;;9.98;1.20;;;;;;;13.97;56.02;99210.84;4918011;29;20028;-63
2021/12/01 11:10:10;;;;;;;10.95;1.38;;;;;;;14.26;55.73;99214.09;4916634;29;20052;-63
2021/12/01 11:12:36;;;;;;;7.82;1.40;;;;;;;14.49;54.80;99222.38;4932916;29;20047;-65
2021/12/01 11:15:31;;;;;;;4.97;1.02;;;;;;;14.35;55.08;99222.13;4923036;29;20032;-63
2021/12/01 11:17:58;;;;;;;6.70;1.67;;;;;;;14.22;55.16;99205.00;4927550;29;20048;-64
2021/12/01 11:20:48;;;;;;;4.63;1.10;;;;;;;14.76;54.00;99207.81;4926581;29;20088;-63
2021/12/01 11:23:30;;;;;;;6.78;1.60;;;;;;;14.00;55.45;99214.03;4924741;29;20454;-65
2021/12/01 11:26:05;;;;;;;9.07;1.58;;;;;;;14.41;54.22;99214.34;4917884;29;20031;-65
2021/12/01 11:28:35;;;;;;;6.10;1.27;;;;;;;14.42;54.08;99204.91;4927510;29;20040;-64
2021/12/01 11:31:04;;;;;;;8.88;1.50;;;;;;;14.15;54.29;99208.41;4928092;29;20039;-64
2021/12/01 11:33:30;;;;;;;8.50;1.40;;;;;;;13.94;54.88;99202.53;4925992;29;20029;-63
2021/12/01 11:36:05;;;;;;;9.40;1.40;;;;;;;13.85;55.05;99200.00;4884289;29;20470;-65
2021/12/01 11:38:31;;;;;;;8.65;1.30;;;;;;;14.80;52.65;99211.44;4919643;29;20040;-64
2021/12/01 11:40:56;;;;;;;9.68;1.45;;;;;;;13.59;55.45;99204.22;4931483;29;20036;-64
2021/12/01 11:43:26;;;;;;;9.32;1.30;;;;;;;14.00;54.90;99211.28;4916969;29;20032;-64
2021/12/01 11:45:51;;;;;;;9.60;1.30;;;;;;;13.93;54.23;99204.47;4930247;29;20035;-62